createdAt,value
2022-08-19T00:02:09.092Z,8.70
2022-08-19T00:12:17.035Z,11.40
2022-08-19T00:22:22.837Z,9.40
2022-08-19T00:32:29.359Z,9.90
2022-08-19T00:42:36.447Z,9.40
2022-08-19T00:52:47.022Z,9.70
2022-08-19T01:02:54.649Z,9.00
2022-08-19T01:13:03.941Z,10.70
2022-08-19T01:23:10.058Z,8.40
2022-08-19T01:33:16.677Z,10.10
2022-08-19T01:43:22.616Z,10.20
2022-08-19T01:53:30.501Z,10.60
2022-08-19T02:03:39.924Z,9.40
2022-08-19T02:13:45.826Z,9.40
2022-08-19T02:23:52.456Z,9.50
2022-08-19T02:33:58.869Z,9.70
2022-08-19T02:44:29.824Z,9.00
2022-08-19T02:54:32.385Z,8.10
2022-08-19T03:04:38.114Z,8.70
2022-08-19T03:14:43.999Z,9.30
2022-08-19T03:24:49.946Z,8.60
2022-08-19T03:34:55.914Z,8.80
2022-08-19T03:45:02.365Z,8.60
2022-08-19T03:55:10.199Z,9.10
2022-08-19T04:05:16.420Z,9.40
2022-08-19T04:15:22.540Z,9.40
2022-08-19T04:25:28.537Z,8.90
2022-08-19T04:35:41.094Z,8.60
2022-08-19T04:45:47.837Z,8.90
2022-08-19T04:55:54.860Z,8.20
2022-08-19T05:06:00.762Z,7.50
2022-08-19T05:16:08.011Z,7.40
2022-08-19T05:26:13.918Z,7.10
2022-08-19T05:36:21.047Z,7.50
2022-08-19T05:46:28.073Z,7.50
2022-08-19T05:56:39.083Z,6.60
2022-08-19T06:06:45.120Z,6.60
2022-08-19T06:16:53.331Z,5.20
2022-08-19T06:27:02.559Z,6.70
2022-08-19T06:37:08.553Z,5.70
2022-08-19T06:47:23.166Z,5.70
2022-08-19T06:57:33.795Z,6.20
2022-08-19T07:07:39.736Z,6.20
2022-08-19T07:17:52.596Z,5.90
2022-08-19T07:27:59.250Z,6.50
2022-08-19T07:38:07.647Z,5.20
2022-08-19T07:48:13.547Z,5.30
2022-08-19T07:58:23.450Z,5.90
2022-08-19T08:08:48.361Z,5.70
2022-08-19T08:18:54.416Z,5.00
2022-08-19T08:29:00.423Z,6.20
2022-08-19T08:39:06.667Z,6.10
2022-08-19T08:49:22.566Z,6.50
2022-08-19T08:59:33.424Z,6.50
2022-08-19T09:09:44.449Z,6.30
2022-08-19T09:19:58.145Z,6.70
2022-08-19T09:30:04.354Z,7.20
2022-08-19T09:40:13.056Z,6.90
2022-08-19T09:50:20.367Z,6.90
2022-08-19T10:00:26.345Z,7.20
2022-08-19T10:10:36.906Z,6.80
2022-08-19T10:20:43.372Z,6.70
2022-08-19T10:30:49.518Z,7.70
2022-08-19T10:40:55.706Z,7.00
2022-08-19T10:51:22.833Z,6.80
2022-08-19T11:01:31.108Z,6.60
2022-08-19T11:11:40.610Z,6.70
2022-08-19T11:21:48.669Z,5.90
2022-08-19T11:31:56.185Z,6.30
2022-08-19T11:42:04.025Z,7.10
2022-08-19T11:52:10.258Z,6.30
2022-08-19T12:02:17.217Z,7.20
2022-08-19T12:12:24.576Z,6.20
2022-08-19T12:22:30.992Z,6.60
2022-08-19T12:32:37.868Z,5.90
2022-08-19T12:42:44.393Z,6.20
2022-08-19T12:52:50.603Z,5.10
2022-08-19T13:02:56.994Z,6.40
2022-08-19T13:13:04.298Z,6.00
2022-08-19T13:23:10.476Z,6.20
2022-08-19T13:43:24.583Z,6.40
2022-08-19T13:53:31.437Z,6.00
2022-08-19T14:03:38.946Z,7.60
2022-08-19T14:13:44.705Z,6.80
2022-08-19T14:23:50.785Z,5.90
2022-08-19T14:33:57.144Z,5.80
2022-08-19T14:54:08.739Z,4.20
2022-08-19T15:04:14.894Z,4.30
2022-08-19T15:14:21.981Z,4.50
2022-08-19T15:24:28.288Z,6.50
2022-08-19T15:44:38.457Z,4.70
2022-08-19T15:54:44.261Z,4.80
2022-08-19T16:05:06.997Z,5.50
2022-08-19T16:15:15.141Z,5.70
2022-08-19T16:25:21.735Z,4.90
2022-08-19T16:45:32.654Z,6.20
2022-08-19T16:55:38.821Z,6.30
2022-08-19T17:05:46.599Z,7.30
2022-08-19T17:15:52.506Z,8.10
2022-08-19T17:25:58.560Z,8.10
2022-08-19T17:36:06.649Z,8.80
2022-08-19T17:46:17.580Z,7.90
2022-08-19T17:56:25.010Z,8.00
2022-08-19T18:16:36.610Z,7.80
2022-08-19T18:26:42.653Z,9.30
2022-08-19T18:36:53.707Z,9.30
2022-08-19T18:47:17.755Z,8.50
2022-08-19T18:57:24.906Z,8.30
2022-08-19T19:07:32.184Z,8.30
2022-08-19T19:17:38.249Z,8.50
2022-08-19T19:27:45.293Z,9.60
2022-08-19T19:37:52.817Z,9.80
2022-08-19T19:48:00.569Z,10.70
2022-08-19T19:58:07.155Z,11.00
2022-08-19T20:08:31.090Z,11.20
2022-08-19T20:18:37.087Z,8.90
2022-08-19T20:28:43.435Z,10.90
2022-08-19T20:38:56.642Z,11.20
2022-08-19T20:49:03.069Z,10.20
2022-08-19T20:59:11.895Z,10.40
2022-08-19T21:09:18.190Z,8.00
2022-08-19T21:19:24.367Z,7.20
2022-08-19T21:29:32.126Z,5.80
2022-08-19T21:39:37.928Z,7.00
2022-08-19T21:49:43.960Z,7.70
2022-08-19T21:59:49.780Z,10.10
2022-08-19T22:09:55.768Z,7.50
2022-08-19T22:20:01.718Z,8.20
2022-08-19T22:30:11.135Z,7.30
2022-08-19T22:40:17.123Z,7.30
2022-08-19T22:50:23.686Z,6.90
2022-08-19T23:00:31.160Z,6.30
2022-08-19T23:10:37.013Z,6.80
2022-08-19T23:20:44.881Z,7.70
2022-08-19T23:30:52.422Z,6.80
2022-08-19T23:41:00.702Z,6.90
2022-08-19T23:51:10.470Z,6.60
